You are listening to:
KJFK Tower - New York, New York, United States

KJFK 270851Z 28007KT 9SM BKN008 OVC060 15/14 A3010 RMK AO2 SLP191 60000 T01500139 53001 $

If stream doesn't start automatically press the play button
If stream stops then reload player then press play